sensor_id;sensor_type;location;lat;lon;timestamp;temperature;humidity
51383;DHT22;37475;43.358;1.248;2023-04-16T00:00:11;9.20;75.40
51383;DHT22;37475;43.358;1.248;2023-04-16T00:02:37;9.20;75.60
51383;DHT22;37475;43.358;1.248;2023-04-16T00:05:03;9.20;75.60
51383;DHT22;37475;43.358;1.248;2023-04-16T00:07:29;9.20;75.50
51383;DHT22;37475;43.358;1.248;2023-04-16T00:09:55;9.20;75.40
51383;DHT22;37475;43.358;1.248;2023-04-16T00:12:21;9.20;75.40
51383;DHT22;37475;43.358;1.248;2023-04-16T00:14:48;9.20;76.00
51383;DHT22;37475;43.358;1.248;2023-04-16T00:17:14;9.10;76.30
51383;DHT22;37475;43.358;1.248;2023-04-16T00:19:40;9.10;76.80
51383;DHT22;37475;43.358;1.248;2023-04-16T00:22:05;9.10;76.50
51383;DHT22;37475;43.358;1.248;2023-04-16T00:24:31;9.10;76.80
51383;DHT22;37475;43.358;1.248;2023-04-16T00:26:57;9.10;77.20
51383;DHT22;37475;43.358;1.248;2023-04-16T00:29:23;9.00;77.10
51383;DHT22;37475;43.358;1.248;2023-04-16T00:31:49;9.00;77.30
51383;DHT22;37475;43.358;1.248;2023-04-16T00:34:15;9.00;77.50
51383;DHT22;37475;43.358;1.248;2023-04-16T00:36:41;9.00;77.90
51383;DHT22;37475;43.358;1.248;2023-04-16T00:39:06;8.90;78.00
51383;DHT22;37475;43.358;1.248;2023-04-16T00:41:32;8.90;78.20
51383;DHT22;37475;43.358;1.248;2023-04-16T00:43:58;9.00;77.90
51383;DHT22;37475;43.358;1.248;2023-04-16T00:46:24;8.90;78.60
51383;DHT22;37475;43.358;1.248;2023-04-16T00:48:50;8.90;78.60
51383;DHT22;37475;43.358;1.248;2023-04-16T00:51:18;8.90;78.60
51383;DHT22;37475;43.358;1.248;2023-04-16T00:53:46;8.90;78.70
51383;DHT22;37475;43.358;1.248;2023-04-16T00:56:12;8.90;79.10
51383;DHT22;37475;43.358;1.248;2023-04-16T00:58:38;8.90;79.30
51383;DHT22;37475;43.358;1.248;2023-04-16T01:01:04;8.90;79.30
51383;DHT22;37475;43.358;1.248;2023-04-16T01:03:37;8.90;79.40
51383;DHT22;37475;43.358;1.248;2023-04-16T01:06:05;8.90;79.60
51383;DHT22;37475;43.358;1.248;2023-04-16T01:08:31;8.80;79.90
51383;DHT22;37475;43.358;1.248;2023-04-16T01:10:57;8.80;79.70
51383;DHT22;37475;43.358;1.248;2023-04-16T01:13:23;8.80;79.90
51383;DHT22;37475;43.358;1.248;2023-04-16T01:15:49;8.80;79.60
51383;DHT22;37475;43.358;1.248;2023-04-16T01:18:15;8.80;79.70
51383;DHT22;37475;43.358;1.248;2023-04-16T01:20:42;8.80;80.20
51383;DHT22;37475;43.358;1.248;2023-04-16T01:23:08;8.80;80.30
51383;DHT22;37475;43.358;1.248;2023-04-16T01:25:34;8.70;80.40
51383;DHT22;37475;43.358;1.248;2023-04-16T01:28:00;8.60;80.90
51383;DHT22;37475;43.358;1.248;2023-04-16T01:30:25;8.60;80.80
51383;DHT22;37475;43.358;1.248;2023-04-16T01:32:51;8.60;81.20
51383;DHT22;37475;43.358;1.248;2023-04-16T01:35:17;8.50;81.30
51383;DHT22;37475;43.358;1.248;2023-04-16T01:37:43;8.40;81.90
51383;DHT22;37475;43.358;1.248;2023-04-16T01:40:09;8.40;81.70
51383;DHT22;37475;43.358;1.248;2023-04-16T01:42:36;8.40;81.60
51383;DHT22;37475;43.358;1.248;2023-04-16T01:45:04;8.20;82.70
51383;DHT22;37475;43.358;1.248;2023-04-16T01:47:30;8.10;83.00
51383;DHT22;37475;43.358;1.248;2023-04-16T01:49:56;8.20;82.80
51383;DHT22;37475;43.358;1.248;2023-04-16T01:52:22;8.20;82.50
51383;DHT22;37475;43.358;1.248;2023-04-16T01:54:47;8.10;83.00
51383;DHT22;37475;43.358;1.248;2023-04-16T01:57:13;8.10;83.00
51383;DHT22;37475;43.358;1.248;2023-04-16T01:59:39;8.20;82.60
51383;DHT22;37475;43.358;1.248;2023-04-16T02:02:10;8.20;82.60
51383;DHT22;37475;43.358;1.248;2023-04-16T02:04:38;8.30;82.60
51383;DHT22;37475;43.358;1.248;2023-04-16T02:07:05;8.20;82.80
51383;DHT22;37475;43.358;1.248;2023-04-16T02:09:33;8.20;82.90
51383;DHT22;37475;43.358;1.248;2023-04-16T02:12:00;8.30;82.80
51383;DHT22;37475;43.358;1.248;2023-04-16T02:14:29;8.30;82.70
51383;DHT22;37475;43.358;1.248;2023-04-16T02:16:55;8.20;83.00
51383;DHT22;37475;43.358;1.248;2023-04-16T02:19:21;8.10;83.20
51383;DHT22;37475;43.358;1.248;2023-04-16T02:21:47;8.10;83.30
51383;DHT22;37475;43.358;1.248;2023-04-16T02:24:14;8.10;83.40
51383;DHT22;37475;43.358;1.248;2023-04-16T02:26:40;8.10;83.10
51383;DHT22;37475;43.358;1.248;2023-04-16T02:29:05;8.10;83.30
51383;DHT22;37475;43.358;1.248;2023-04-16T02:31:31;8.10;83.40
51383;DHT22;37475;43.358;1.248;2023-04-16T02:33:57;8.10;83.40
51383;DHT22;37475;43.358;1.248;2023-04-16T02:36:24;8.10;83.80
51383;DHT22;37475;43.358;1.248;2023-04-16T02:38:50;8.10;83.70
51383;DHT22;37475;43.358;1.248;2023-04-16T02:41:16;8.10;83.60
51383;DHT22;37475;43.358;1.248;2023-04-16T02:43:41;8.10;83.80
51383;DHT22;37475;43.358;1.248;2023-04-16T02:46:07;8.10;83.90
51383;DHT22;37475;43.358;1.248;2023-04-16T02:48:33;8.20;83.60
51383;DHT22;37475;43.358;1.248;2023-04-16T02:50:59;8.20;83.50
51383;DHT22;37475;43.358;1.248;2023-04-16T02:53:25;8.20;83.60
51383;DHT22;37475;43.358;1.248;2023-04-16T02:55:51;8.30;83.60
51383;DHT22;37475;43.358;1.248;2023-04-16T02:58:22;8.20;83.60
51383;DHT22;37475;43.358;1.248;2023-04-16T03:00:49;8.20;83.80
51383;DHT22;37475;43.358;1.248;2023-04-16T03:03:16;8.20;83.90
51383;DHT22;37475;43.358;1.248;2023-04-16T03:05:42;8.20;83.80
51383;DHT22;37475;43.358;1.248;2023-04-16T03:08:08;8.20;84.10
51383;DHT22;37475;43.358;1.248;2023-04-16T03:10:34;8.20;84.30
51383;DHT22;37475;43.358;1.248;2023-04-16T03:13:00;8.20;85.10
51383;DHT22;37475;43.358;1.248;2023-04-16T03:15:26;8.10;85.10
51383;DHT22;37475;43.358;1.248;2023-04-16T03:17:52;8.20;85.40
51383;DHT22;37475;43.358;1.248;2023-04-16T03:20:19;8.20;85.10
51383;DHT22;37475;43.358;1.248;2023-04-16T03:22:45;8.20;85.50
51383;DHT22;37475;43.358;1.248;2023-04-16T03:25:11;8.20;85.20
51383;DHT22;37475;43.358;1.248;2023-04-16T03:27:37;8.30;85.20
51383;DHT22;37475;43.358;1.248;2023-04-16T03:30:09;8.20;85.30
51383;DHT22;37475;43.358;1.248;2023-04-16T03:32:36;8.20;85.40
51383;DHT22;37475;43.358;1.248;2023-04-16T03:35:03;8.30;85.40
51383;DHT22;37475;43.358;1.248;2023-04-16T03:37:29;8.20;85.50
51383;DHT22;37475;43.358;1.248;2023-04-16T03:39:55;8.20;85.70
51383;DHT22;37475;43.358;1.248;2023-04-16T03:42:21;8.20;85.70
51383;DHT22;37475;43.358;1.248;2023-04-16T03:44:47;8.10;85.80
51383;DHT22;37475;43.358;1.248;2023-04-16T03:47:13;8.10;85.90
51383;DHT22;37475;43.358;1.248;2023-04-16T03:49:38;8.10;86.00
51383;DHT22;37475;43.358;1.248;2023-04-16T03:52:04;8.10;86.00
51383;DHT22;37475;43.358;1.248;2023-04-16T03:54:30;8.10;86.10
51383;DHT22;37475;43.358;1.248;2023-04-16T03:56:56;8.10;86.10
51383;DHT22;37475;43.358;1.248;2023-04-16T03:59:22;8.10;86.10
51383;DHT22;37475;43.358;1.248;2023-04-16T04:01:48;8.10;86.20
51383;DHT22;37475;43.358;1.248;2023-04-16T04:04:13;8.10;86.20
51383;DHT22;37475;43.358;1.248;2023-04-16T04:06:39;8.10;86.30
51383;DHT22;37475;43.358;1.248;2023-04-16T04:09:05;8.10;86.30
51383;DHT22;37475;43.358;1.248;2023-04-16T04:11:31;8.00;86.20
51383;DHT22;37475;43.358;1.248;2023-04-16T04:13:57;8.00;86.30
51383;DHT22;37475;43.358;1.248;2023-04-16T04:16:23;8.00;86.40
51383;DHT22;37475;43.358;1.248;2023-04-16T04:18:49;8.00;86.20
51383;DHT22;37475;43.358;1.248;2023-04-16T04:21:15;7.90;86.30
51383;DHT22;37475;43.358;1.248;2023-04-16T04:23:41;7.90;86.30
51383;DHT22;37475;43.358;1.248;2023-04-16T04:26:07;7.90;86.30
51383;DHT22;37475;43.358;1.248;2023-04-16T04:28:33;7.80;86.30
51383;DHT22;37475;43.358;1.248;2023-04-16T04:31:00;7.80;86.40
51383;DHT22;37475;43.358;1.248;2023-04-16T04:33:26;7.80;86.40
51383;DHT22;37475;43.358;1.248;2023-04-16T04:35:53;7.70;86.50
51383;DHT22;37475;43.358;1.248;2023-04-16T04:38:20;7.70;86.60
51383;DHT22;37475;43.358;1.248;2023-04-16T04:40:52;7.60;86.60
51383;DHT22;37475;43.358;1.248;2023-04-16T04:43:19;7.60;86.60
51383;DHT22;37475;43.358;1.248;2023-04-16T04:45:45;7.50;87.10
51383;DHT22;37475;43.358;1.248;2023-04-16T04:48:11;7.40;87.00
51383;DHT22;37475;43.358;1.248;2023-04-16T04:50:37;7.50;87.10
51383;DHT22;37475;43.358;1.248;2023-04-16T04:53:05;7.40;87.10
51383;DHT22;37475;43.358;1.248;2023-04-16T04:55:35;7.40;87.10
51383;DHT22;37475;43.358;1.248;2023-04-16T04:58:03;7.40;87.50
51383;DHT22;37475;43.358;1.248;2023-04-16T05:00:30;7.40;87.40
51383;DHT22;37475;43.358;1.248;2023-04-16T05:02:56;7.30;87.50
51383;DHT22;37475;43.358;1.248;2023-04-16T05:05:22;7.30;87.70
51383;DHT22;37475;43.358;1.248;2023-04-16T05:07:47;7.30;87.60
51383;DHT22;37475;43.358;1.248;2023-04-16T05:10:13;7.20;87.60
51383;DHT22;37475;43.358;1.248;2023-04-16T05:12:39;7.20;87.60
51383;DHT22;37475;43.358;1.248;2023-04-16T05:15:05;7.20;87.50
51383;DHT22;37475;43.358;1.248;2023-04-16T05:17:31;7.10;87.60
51383;DHT22;37475;43.358;1.248;2023-04-16T05:19:59;7.20;87.80
51383;DHT22;37475;43.358;1.248;2023-04-16T05:22:25;7.10;87.60
51383;DHT22;37475;43.358;1.248;2023-04-16T05:24:50;7.20;87.60
51383;DHT22;37475;43.358;1.248;2023-04-16T05:27:16;7.20;87.50
51383;DHT22;37475;43.358;1.248;2023-04-16T05:29:42;7.10;87.50
51383;DHT22;37475;43.358;1.248;2023-04-16T05:32:08;7.20;87.70
51383;DHT22;37475;43.358;1.248;2023-04-16T05:34:33;7.20;87.60
51383;DHT22;37475;43.358;1.248;2023-04-16T05:36:59;7.30;87.30
51383;DHT22;37475;43.358;1.248;2023-04-16T05:39:25;7.30;87.00
51383;DHT22;37475;43.358;1.248;2023-04-16T05:41:51;7.30;86.80
51383;DHT22;37475;43.358;1.248;2023-04-16T05:44:17;7.40;86.80
51383;DHT22;37475;43.358;1.248;2023-04-16T05:46:43;7.30;86.70
51383;DHT22;37475;43.358;1.248;2023-04-16T05:49:09;7.30;86.60
51383;DHT22;37475;43.358;1.248;2023-04-16T05:51:35;7.40;86.40
51383;DHT22;37475;43.358;1.248;2023-04-16T05:54:01;7.40;86.30
51383;DHT22;37475;43.358;1.248;2023-04-16T05:56:27;7.40;86.40
51383;DHT22;37475;43.358;1.248;2023-04-16T05:58:52;7.40;86.20
51383;DHT22;37475;43.358;1.248;2023-04-16T06:01:18;7.40;86.30
51383;DHT22;37475;43.358;1.248;2023-04-16T06:03:44;7.40;86.30
51383;DHT22;37475;43.358;1.248;2023-04-16T06:06:10;7.50;86.60
51383;DHT22;37475;43.358;1.248;2023-04-16T06:08:36;7.50;86.70
51383;DHT22;37475;43.358;1.248;2023-04-16T06:11:02;7.50;86.70
51383;DHT22;37475;43.358;1.248;2023-04-16T06:13:28;7.60;86.60
51383;DHT22;37475;43.358;1.248;2023-04-16T06:15:53;7.60;86.50
51383;DHT22;37475;43.358;1.248;2023-04-16T06:18:19;7.60;86.30
51383;DHT22;37475;43.358;1.248;2023-04-16T06:20:46;7.70;86.40
51383;DHT22;37475;43.358;1.248;2023-04-16T06:23:11;7.80;86.30
51383;DHT22;37475;43.358;1.248;2023-04-16T06:25:37;7.90;86.30
51383;DHT22;37475;43.358;1.248;2023-04-16T06:28:03;7.90;86.40
51383;DHT22;37475;43.358;1.248;2023-04-16T06:30:29;8.00;86.40
51383;DHT22;37475;43.358;1.248;2023-04-16T06:32:55;8.10;86.30
51383;DHT22;37475;43.358;1.248;2023-04-16T06:35:21;8.10;86.30
51383;DHT22;37475;43.358;1.248;2023-04-16T06:37:47;8.20;86.00
51383;DHT22;37475;43.358;1.248;2023-04-16T06:40:12;8.30;86.10
51383;DHT22;37475;43.358;1.248;2023-04-16T06:42:38;8.40;85.90
51383;DHT22;37475;43.358;1.248;2023-04-16T06:45:05;8.60;85.50
51383;DHT22;37475;43.358;1.248;2023-04-16T06:47:31;8.80;84.20
51383;DHT22;37475;43.358;1.248;2023-04-16T06:49:57;9.00;84.20
51383;DHT22;37475;43.358;1.248;2023-04-16T06:52:23;9.10;83.30
51383;DHT22;37475;43.358;1.248;2023-04-16T06:54:48;9.20;83.60
51383;DHT22;37475;43.358;1.248;2023-04-16T06:57:14;9.20;82.40
51383;DHT22;37475;43.358;1.248;2023-04-16T06:59:40;9.30;82.30
51383;DHT22;37475;43.358;1.248;2023-04-16T07:02:08;9.30;82.30
51383;DHT22;37475;43.358;1.248;2023-04-16T07:04:35;9.40;82.00
51383;DHT22;37475;43.358;1.248;2023-04-16T07:07:01;9.60;82.00
51383;DHT22;37475;43.358;1.248;2023-04-16T07:09:26;9.70;82.30
51383;DHT22;37475;43.358;1.248;2023-04-16T07:11:53;9.80;82.50
51383;DHT22;37475;43.358;1.248;2023-04-16T07:14:18;9.80;81.70
51383;DHT22;37475;43.358;1.248;2023-04-16T07:16:44;9.80;81.10
51383;DHT22;37475;43.358;1.248;2023-04-16T07:19:10;9.90;81.10
51383;DHT22;37475;43.358;1.248;2023-04-16T07:21:36;10.00;81.60
51383;DHT22;37475;43.358;1.248;2023-04-16T07:24:02;10.00;80.20
51383;DHT22;37475;43.358;1.248;2023-04-16T07:26:28;10.10;80.90
51383;DHT22;37475;43.358;1.248;2023-04-16T07:28:54;10.20;81.20
51383;DHT22;37475;43.358;1.248;2023-04-16T07:31:19;10.20;80.90
51383;DHT22;37475;43.358;1.248;2023-04-16T07:33:45;10.30;80.10
51383;DHT22;37475;43.358;1.248;2023-04-16T07:36:11;10.40;79.60
51383;DHT22;37475;43.358;1.248;2023-04-16T07:38:37;10.50;79.30
51383;DHT22;37475;43.358;1.248;2023-04-16T07:41:03;10.60;80.20
51383;DHT22;37475;43.358;1.248;2023-04-16T07:43:28;10.70;80.10
51383;DHT22;37475;43.358;1.248;2023-04-16T07:45:54;10.60;78.90
51383;DHT22;37475;43.358;1.248;2023-04-16T07:48:21;10.60;78.50
51383;DHT22;37475;43.358;1.248;2023-04-16T07:50:46;10.60;78.50
51383;DHT22;37475;43.358;1.248;2023-04-16T07:53:12;10.60;79.20
51383;DHT22;37475;43.358;1.248;2023-04-16T07:55:38;10.70;78.60
51383;DHT22;37475;43.358;1.248;2023-04-16T07:58:04;10.80;79.10
51383;DHT22;37475;43.358;1.248;2023-04-16T08:00:31;10.80;78.60
51383;DHT22;37475;43.358;1.248;2023-04-16T08:02:57;11.00;79.90
51383;DHT22;37475;43.358;1.248;2023-04-16T08:05:23;11.10;79.00
51383;DHT22;37475;43.358;1.248;2023-04-16T08:07:49;11.30;79.90
51383;DHT22;37475;43.358;1.248;2023-04-16T08:10:14;11.10;77.10
51383;DHT22;37475;43.358;1.248;2023-04-16T08:12:40;11.10;78.00
51383;DHT22;37475;43.358;1.248;2023-04-16T08:15:06;11.20;76.90
51383;DHT22;37475;43.358;1.248;2023-04-16T08:17:33;11.40;76.90
51383;DHT22;37475;43.358;1.248;2023-04-16T08:19:59;11.40;77.30
51383;DHT22;37475;43.358;1.248;2023-04-16T08:22:27;11.50;77.70
51383;DHT22;37475;43.358;1.248;2023-04-16T08:24:52;11.50;76.80
51383;DHT22;37475;43.358;1.248;2023-04-16T08:27:18;11.50;76.90
51383;DHT22;37475;43.358;1.248;2023-04-16T08:29:44;11.50;77.00
51383;DHT22;37475;43.358;1.248;2023-04-16T08:32:10;11.60;75.50
51383;DHT22;37475;43.358;1.248;2023-04-16T08:34:36;11.50;75.40
51383;DHT22;37475;43.358;1.248;2023-04-16T08:37:02;11.60;75.50
51383;DHT22;37475;43.358;1.248;2023-04-16T08:39:28;11.70;74.60
51383;DHT22;37475;43.358;1.248;2023-04-16T08:41:54;11.60;74.00
51383;DHT22;37475;43.358;1.248;2023-04-16T08:44:31;11.80;76.20
51383;DHT22;37475;43.358;1.248;2023-04-16T08:46:59;12.00;76.00
51383;DHT22;37475;43.358;1.248;2023-04-16T08:49:26;12.00;75.20
51383;DHT22;37475;43.358;1.248;2023-04-16T08:51:54;12.10;75.30
51383;DHT22;37475;43.358;1.248;2023-04-16T08:54:45;12.00;74.50
51383;DHT22;37475;43.358;1.248;2023-04-16T08:57:23;12.30;75.90
51383;DHT22;37475;43.358;1.248;2023-04-16T08:59:53;12.10;74.90
51383;DHT22;37475;43.358;1.248;2023-04-16T09:02:20;12.20;75.70
51383;DHT22;37475;43.358;1.248;2023-04-16T09:04:47;12.40;74.50
51383;DHT22;37475;43.358;1.248;2023-04-16T09:07:14;12.50;74.50
51383;DHT22;37475;43.358;1.248;2023-04-16T09:09:42;12.50;75.70
51383;DHT22;37475;43.358;1.248;2023-04-16T09:12:09;12.40;74.80
51383;DHT22;37475;43.358;1.248;2023-04-16T09:14:35;12.40;75.20
51383;DHT22;37475;43.358;1.248;2023-04-16T09:17:02;12.60;75.00
51383;DHT22;37475;43.358;1.248;2023-04-16T09:19:28;12.60;74.80
51383;DHT22;37475;43.358;1.248;2023-04-16T09:21:54;12.40;74.30
51383;DHT22;37475;43.358;1.248;2023-04-16T09:24:20;12.20;74.90
51383;DHT22;37475;43.358;1.248;2023-04-16T09:26:47;12.30;74.00
51383;DHT22;37475;43.358;1.248;2023-04-16T09:29:36;12.60;73.60
51383;DHT22;37475;43.358;1.248;2023-04-16T09:32:04;12.60;71.50
51383;DHT22;37475;43.358;1.248;2023-04-16T09:34:46;12.60;72.90
51383;DHT22;37475;43.358;1.248;2023-04-16T09:37:26;12.60;72.10
51383;DHT22;37475;43.358;1.248;2023-04-16T09:39:58;12.60;72.70
51383;DHT22;37475;43.358;1.248;2023-04-16T09:42:30;12.80;72.70
51383;DHT22;37475;43.358;1.248;2023-04-16T09:44:57;12.80;70.40
51383;DHT22;37475;43.358;1.248;2023-04-16T09:47:38;13.00;71.60
51383;DHT22;37475;43.358;1.248;2023-04-16T09:50:06;13.10;72.60
51383;DHT22;37475;43.358;1.248;2023-04-16T09:52:35;13.20;70.60
51383;DHT22;37475;43.358;1.248;2023-04-16T09:55:05;13.20;69.60
51383;DHT22;37475;43.358;1.248;2023-04-16T09:57:31;13.60;70.80
51383;DHT22;37475;43.358;1.248;2023-04-16T10:00:05;13.70;70.90
51383;DHT22;37475;43.358;1.248;2023-04-16T10:02:33;13.50;67.90
51383;DHT22;37475;43.358;1.248;2023-04-16T10:05:01;13.30;67.00
51383;DHT22;37475;43.358;1.248;2023-04-16T10:07:28;13.40;69.10
51383;DHT22;37475;43.358;1.248;2023-04-16T10:09:54;13.60;67.20
51383;DHT22;37475;43.358;1.248;2023-04-16T10:12:21;13.90;65.60
51383;DHT22;37475;43.358;1.248;2023-04-16T10:14:46;13.90;64.60
51383;DHT22;37475;43.358;1.248;2023-04-16T10:17:12;13.90;64.90
51383;DHT22;37475;43.358;1.248;2023-04-16T10:19:38;13.30;67.80
51383;DHT22;37475;43.358;1.248;2023-04-16T10:22:05;13.40;68.40
51383;DHT22;37475;43.358;1.248;2023-04-16T10:24:32;13.70;64.40
51383;DHT22;37475;43.358;1.248;2023-04-16T10:26:59;14.30;64.30
51383;DHT22;37475;43.358;1.248;2023-04-16T10:29:26;14.30;63.10
51383;DHT22;37475;43.358;1.248;2023-04-16T10:31:54;14.10;63.90
51383;DHT22;37475;43.358;1.248;2023-04-16T10:34:22;13.50;62.10
51383;DHT22;37475;43.358;1.248;2023-04-16T10:36:50;13.20;66.10
51383;DHT22;37475;43.358;1.248;2023-04-16T10:39:22;13.30;63.10
51383;DHT22;37475;43.358;1.248;2023-04-16T10:41:49;14.00;62.10
51383;DHT22;37475;43.358;1.248;2023-04-16T10:44:17;14.40;58.90
51383;DHT22;37475;43.358;1.248;2023-04-16T10:46:46;14.50;63.70
51383;DHT22;37475;43.358;1.248;2023-04-16T10:51:57;15.00;59.50
51383;DHT22;37475;43.358;1.248;2023-04-16T10:54:29;14.80;59.70
51383;DHT22;37475;43.358;1.248;2023-04-16T10:56:58;15.20;60.40
51383;DHT22;37475;43.358;1.248;2023-04-16T10:59:30;14.80;58.30
51383;DHT22;37475;43.358;1.248;2023-04-16T11:01:58;14.80;61.50
51383;DHT22;37475;43.358;1.248;2023-04-16T11:04:37;14.80;58.00
51383;DHT22;37475;43.358;1.248;2023-04-16T11:07:10;14.40;57.60
51383;DHT22;37475;43.358;1.248;2023-04-16T11:15:02;15.50;60.50
51383;DHT22;37475;43.358;1.248;2023-04-16T11:17:39;15.30;59.70
51383;DHT22;37475;43.358;1.248;2023-04-16T11:20:26;15.60;58.20
51383;DHT22;37475;43.358;1.248;2023-04-16T11:22:54;15.60;57.20
51383;DHT22;37475;43.358;1.248;2023-04-16T11:25:25;15.80;55.80
51383;DHT22;37475;43.358;1.248;2023-04-16T11:27:53;15.10;56.30
51383;DHT22;37475;43.358;1.248;2023-04-16T11:30:34;15.30;59.40
51383;DHT22;37475;43.358;1.248;2023-04-16T11:33:04;15.20;58.70
51383;DHT22;37475;43.358;1.248;2023-04-16T11:35:31;15.40;58.60
51383;DHT22;37475;43.358;1.248;2023-04-16T11:37:57;15.10;57.90
51383;DHT22;37475;43.358;1.248;2023-04-16T11:40:23;15.20;60.70
51383;DHT22;37475;43.358;1.248;2023-04-16T11:42:50;15.00;59.70
51383;DHT22;37475;43.358;1.248;2023-04-16T11:45:16;15.10;58.20
51383;DHT22;37475;43.358;1.248;2023-04-16T11:47:51;15.20;56.70
51383;DHT22;37475;43.358;1.248;2023-04-16T11:50:24;15.30;60.90
51383;DHT22;37475;43.358;1.248;2023-04-16T11:52:53;15.50;56.70
51383;DHT22;37475;43.358;1.248;2023-04-16T11:55:20;15.40;57.30
51383;DHT22;37475;43.358;1.248;2023-04-16T11:57:47;15.50;59.50
51383;DHT22;37475;43.358;1.248;2023-04-16T12:00:14;16.10;60.30
51383;DHT22;37475;43.358;1.248;2023-04-16T12:02:53;16.10;52.90
51383;DHT22;37475;43.358;1.248;2023-04-16T12:08:10;15.50;57.00
51383;DHT22;37475;43.358;1.248;2023-04-16T12:10:53;15.10;56.00
51383;DHT22;37475;43.358;1.248;2023-04-16T12:13:20;15.00;58.80
51383;DHT22;37475;43.358;1.248;2023-04-16T12:15:50;15.60;56.20
51383;DHT22;37475;43.358;1.248;2023-04-16T12:18:19;15.70;54.10
51383;DHT22;37475;43.358;1.248;2023-04-16T12:20:47;16.00;52.40
51383;DHT22;37475;43.358;1.248;2023-04-16T12:23:32;16.30;54.30
51383;DHT22;37475;43.358;1.248;2023-04-16T12:26:06;17.10;51.40
51383;DHT22;37475;43.358;1.248;2023-04-16T12:28:35;16.90;52.50
51383;DHT22;37475;43.358;1.248;2023-04-16T12:31:04;16.20;56.00
51383;DHT22;37475;43.358;1.248;2023-04-16T12:33:31;16.20;51.60
51383;DHT22;37475;43.358;1.248;2023-04-16T12:35:57;16.90;50.90
51383;DHT22;37475;43.358;1.248;2023-04-16T12:38:22;17.50;50.80
51383;DHT22;37475;43.358;1.248;2023-04-16T12:40:49;16.40;53.90
51383;DHT22;37475;43.358;1.248;2023-04-16T12:43:15;16.10;52.30
51383;DHT22;37475;43.358;1.248;2023-04-16T12:45:41;16.50;53.00
51383;DHT22;37475;43.358;1.248;2023-04-16T12:48:07;16.60;51.60
51383;DHT22;37475;43.358;1.248;2023-04-16T12:50:33;16.70;50.80
51383;DHT22;37475;43.358;1.248;2023-04-16T12:52:59;17.10;48.90
51383;DHT22;37475;43.358;1.248;2023-04-16T12:55:25;17.80;50.20
51383;DHT22;37475;43.358;1.248;2023-04-16T12:57:51;18.30;47.80
51383;DHT22;37475;43.358;1.248;2023-04-16T13:00:20;18.20;48.30
51383;DHT22;37475;43.358;1.248;2023-04-16T13:02:46;17.80;47.40
51383;DHT22;37475;43.358;1.248;2023-04-16T13:05:12;17.70;47.50
51383;DHT22;37475;43.358;1.248;2023-04-16T13:07:41;17.20;47.60
51383;DHT22;37475;43.358;1.248;2023-04-16T13:10:07;17.10;51.20
51383;DHT22;37475;43.358;1.248;2023-04-16T13:12:33;17.40;48.90
51383;DHT22;37475;43.358;1.248;2023-04-16T13:14:59;16.20;49.70
51383;DHT22;37475;43.358;1.248;2023-04-16T13:17:25;16.60;50.50
51383;DHT22;37475;43.358;1.248;2023-04-16T13:19:51;17.10;48.60
51383;DHT22;37475;43.358;1.248;2023-04-16T13:22:17;17.60;53.40
51383;DHT22;37475;43.358;1.248;2023-04-16T13:24:43;17.00;55.30
51383;DHT22;37475;43.358;1.248;2023-04-16T13:27:08;16.60;53.10
51383;DHT22;37475;43.358;1.248;2023-04-16T13:29:35;17.00;53.50
51383;DHT22;37475;43.358;1.248;2023-04-16T13:32:02;18.10;49.40
51383;DHT22;37475;43.358;1.248;2023-04-16T13:34:28;18.80;45.70
51383;DHT22;37475;43.358;1.248;2023-04-16T13:36:54;18.80;45.60
51383;DHT22;37475;43.358;1.248;2023-04-16T13:39:19;18.00;48.50
51383;DHT22;37475;43.358;1.248;2023-04-16T13:41:45;16.80;51.30
51383;DHT22;37475;43.358;1.248;2023-04-16T13:44:13;16.80;53.50
51383;DHT22;37475;43.358;1.248;2023-04-16T13:46:39;16.90;51.20
51383;DHT22;37475;43.358;1.248;2023-04-16T13:49:05;17.40;49.60
51383;DHT22;37475;43.358;1.248;2023-04-16T13:51:31;17.90;48.70
51383;DHT22;37475;43.358;1.248;2023-04-16T13:53:57;18.70;46.30
51383;DHT22;37475;43.358;1.248;2023-04-16T13:56:23;17.90;51.70
51383;DHT22;37475;43.358;1.248;2023-04-16T13:58:49;17.50;52.90
51383;DHT22;37475;43.358;1.248;2023-04-16T14:01:16;18.50;46.30
51383;DHT22;37475;43.358;1.248;2023-04-16T14:03:42;19.00;45.30
51383;DHT22;37475;43.358;1.248;2023-04-16T14:06:08;18.30;47.80
51383;DHT22;37475;43.358;1.248;2023-04-16T14:08:33;17.50;52.70
51383;DHT22;37475;43.358;1.248;2023-04-16T14:10:59;17.10;50.60
51383;DHT22;37475;43.358;1.248;2023-04-16T14:13:26;17.10;48.40
51383;DHT22;37475;43.358;1.248;2023-04-16T14:15:55;17.50;49.40
51383;DHT22;37475;43.358;1.248;2023-04-16T14:18:21;18.60;46.20
51383;DHT22;37475;43.358;1.248;2023-04-16T14:20:47;19.20;45.80
51383;DHT22;37475;43.358;1.248;2023-04-16T14:23:13;19.80;46.40
51383;DHT22;37475;43.358;1.248;2023-04-16T14:25:38;18.70;47.30
51383;DHT22;37475;43.358;1.248;2023-04-16T14:28:04;18.60;47.60
51383;DHT22;37475;43.358;1.248;2023-04-16T14:30:30;18.60;50.00
51383;DHT22;37475;43.358;1.248;2023-04-16T14:32:57;18.30;50.10
51383;DHT22;37475;43.358;1.248;2023-04-16T14:35:23;17.50;51.10
51383;DHT22;37475;43.358;1.248;2023-04-16T14:37:49;18.00;48.50
51383;DHT22;37475;43.358;1.248;2023-04-16T14:40:15;18.10;51.50
51383;DHT22;37475;43.358;1.248;2023-04-16T14:42:41;18.10;49.10
51383;DHT22;37475;43.358;1.248;2023-04-16T14:45:07;19.10;46.60
51383;DHT22;37475;43.358;1.248;2023-04-16T14:47:34;20.10;43.50
51383;DHT22;37475;43.358;1.248;2023-04-16T14:50:01;20.30;42.40
51383;DHT22;37475;43.358;1.248;2023-04-16T14:52:30;20.60;42.60
51383;DHT22;37475;43.358;1.248;2023-04-16T14:54:57;21.10;41.80
51383;DHT22;37475;43.358;1.248;2023-04-16T14:57:23;20.90;43.20
51383;DHT22;37475;43.358;1.248;2023-04-16T14:59:49;20.80;42.00
51383;DHT22;37475;43.358;1.248;2023-04-16T15:02:15;20.70;39.90
51383;DHT22;37475;43.358;1.248;2023-04-16T15:04:41;19.30;46.50
51383;DHT22;37475;43.358;1.248;2023-04-16T15:07:07;17.30;49.60
51383;DHT22;37475;43.358;1.248;2023-04-16T15:09:33;17.60;50.60
51383;DHT22;37475;43.358;1.248;2023-04-16T15:11:59;18.90;46.00
51383;DHT22;37475;43.358;1.248;2023-04-16T15:14:25;18.70;45.90
51383;DHT22;37475;43.358;1.248;2023-04-16T15:16:51;18.50;44.20
51383;DHT22;37475;43.358;1.248;2023-04-16T15:19:17;18.60;44.90
51383;DHT22;37475;43.358;1.248;2023-04-16T15:21:43;18.90;45.20
51383;DHT22;37475;43.358;1.248;2023-04-16T15:24:10;19.60;45.80
51383;DHT22;37475;43.358;1.248;2023-04-16T15:26:36;20.50;44.40
51383;DHT22;37475;43.358;1.248;2023-04-16T15:29:02;20.70;43.20
51383;DHT22;37475;43.358;1.248;2023-04-16T15:31:28;19.60;41.10
51383;DHT22;37475;43.358;1.248;2023-04-16T15:33:54;18.50;44.30
51383;DHT22;37475;43.358;1.248;2023-04-16T15:36:20;18.40;46.30
51383;DHT22;37475;43.358;1.248;2023-04-16T15:38:46;18.10;48.00
51383;DHT22;37475;43.358;1.248;2023-04-16T15:41:12;17.30;46.00
51383;DHT22;37475;43.358;1.248;2023-04-16T15:43:38;17.20;45.00
51383;DHT22;37475;43.358;1.248;2023-04-16T15:46:04;17.50;45.10